createdAt,value
2022-09-25T00:01:24.059Z,11.47
2022-09-25T00:03:51.260Z,11.44
2022-09-25T00:06:22.216Z,11.42
2022-09-25T00:08:49.427Z,11.39
2022-09-25T00:11:23.548Z,11.37
2022-09-25T00:13:50.904Z,11.34
2022-09-25T00:16:22.078Z,11.31
2022-09-25T00:19:07.705Z,11.28
2022-09-25T00:21:35.629Z,11.26
2022-09-25T00:24:07.690Z,11.23
2022-09-25T00:26:38.689Z,11.21
2022-09-25T00:29:07.721Z,11.18
2022-09-25T00:31:34.770Z,11.16
2022-09-25T00:34:04.184Z,11.14
2022-09-25T00:36:32.063Z,11.12
2022-09-25T00:39:00.069Z,11.10
2022-09-25T00:41:31.341Z,11.07
2022-09-25T00:44:00.350Z,11.05
2022-09-25T00:46:39.931Z,11.02
2022-09-25T00:49:13.739Z,11.01
2022-09-25T00:51:55.160Z,11.00
2022-09-25T00:54:34.762Z,10.98
2022-09-25T00:57:05.944Z,10.97
2022-09-25T00:59:39.815Z,10.95
2022-09-25T01:02:24.873Z,10.92
2022-09-25T01:04:57.417Z,10.90
2022-09-25T01:07:41.390Z,10.87
2022-09-25T01:10:13.667Z,10.84
2022-09-25T01:12:44.929Z,10.82
2022-09-25T01:15:13.564Z,10.79
2022-09-25T01:18:06.799Z,10.77
2022-09-25T01:21:00.599Z,10.74
2022-09-25T01:24:07.623Z,10.72
2022-09-25T01:27:25.752Z,10.68
2022-09-25T01:30:13.741Z,10.64
2022-09-25T01:32:51.872Z,10.59
2022-09-25T01:35:47.209Z,10.55
2022-09-25T01:38:55.998Z,10.52
2022-09-25T01:41:28.461Z,10.49
2022-09-25T01:44:07.334Z,10.47
2022-09-25T01:46:48.491Z,10.44
2022-09-25T01:49:35.047Z,10.42
2022-09-25T01:52:06.646Z,10.40
2022-09-25T01:54:39.659Z,10.38
2022-09-25T01:57:19.431Z,10.37
2022-09-25T01:59:54.675Z,10.34
2022-09-25T02:02:26.323Z,10.32
2022-09-25T02:04:59.804Z,10.30
2022-09-25T02:07:31.848Z,10.28
2022-09-25T02:10:09.889Z,10.26
2022-09-25T02:13:03.312Z,10.24
2022-09-25T02:15:37.842Z,10.23
2022-09-25T02:18:30.439Z,10.22
2022-09-25T02:21:04.822Z,10.21
2022-09-25T02:24:04.542Z,10.23
2022-09-25T02:26:35.058Z,10.27
2022-09-25T02:29:03.919Z,10.25
2022-09-25T02:31:59.127Z,10.22
2022-09-25T02:34:26.191Z,10.19
2022-09-25T02:36:52.998Z,10.19
2022-09-25T02:39:22.772Z,10.18
2022-09-25T02:41:49.220Z,10.17
2022-09-25T02:45:01.576Z,10.16
2022-09-25T02:47:57.958Z,10.15
2022-09-25T02:50:51.544Z,10.15
2022-09-25T02:53:33.568Z,10.16
2022-09-25T02:56:08.451Z,10.17
2022-09-25T02:58:55.968Z,10.18
2022-09-25T03:01:26.236Z,10.19
2022-09-25T03:03:55.982Z,10.19
2022-09-25T03:06:22.988Z,10.19
2022-09-25T03:08:53.679Z,10.20
2022-09-25T03:11:21.147Z,10.19
2022-09-25T03:14:04.253Z,10.19
2022-09-25T03:16:56.023Z,10.19
2022-09-25T03:19:24.803Z,10.20
2022-09-25T03:21:51.308Z,10.20
2022-09-25T03:24:18.021Z,10.19
2022-09-25T03:26:45.166Z,10.18
2022-09-25T03:29:14.245Z,10.17
2022-09-25T03:31:42.329Z,10.17
2022-09-25T03:34:10.116Z,10.18
2022-09-25T03:36:37.385Z,10.17
2022-09-25T03:39:05.486Z,10.18
2022-09-25T03:41:33.958Z,10.19
2022-09-25T03:44:03.920Z,10.20
2022-09-25T03:46:33.931Z,10.22
2022-09-25T03:49:01.796Z,10.23
2022-09-25T03:51:32.186Z,10.24
2022-09-25T03:53:59.371Z,10.25
2022-09-25T03:56:29.164Z,10.26
2022-09-25T03:58:56.561Z,10.27
2022-09-25T04:01:27.940Z,10.26
2022-09-25T04:03:55.136Z,10.26
2022-09-25T04:06:24.965Z,10.26
2022-09-25T04:08:52.559Z,10.26
2022-09-25T04:11:21.419Z,10.26
2022-09-25T04:13:52.968Z,10.25
2022-09-25T04:16:20.701Z,10.25
2022-09-25T04:18:49.567Z,10.26
2022-09-25T04:21:16.517Z,10.25
2022-09-25T04:24:03.493Z,10.24
2022-09-25T04:26:39.711Z,10.23
2022-09-25T04:29:09.498Z,10.23
2022-09-25T04:31:39.067Z,10.23
2022-09-25T04:34:06.236Z,10.23
2022-09-25T04:36:33.279Z,10.24
2022-09-25T04:39:01.070Z,10.23
2022-09-25T04:41:35.128Z,10.22
2022-09-25T04:44:04.896Z,10.22
2022-09-25T04:46:31.999Z,10.21
2022-09-25T04:48:59.155Z,10.21
2022-09-25T04:51:26.162Z,10.22
2022-09-25T04:53:56.355Z,10.23
2022-09-25T04:56:26.443Z,10.24
2022-09-25T04:58:53.355Z,10.26
2022-09-25T05:01:21.679Z,10.27
2022-09-25T05:03:54.464Z,10.28
2022-09-25T05:06:22.609Z,10.30
2022-09-25T05:08:50.924Z,10.31
2022-09-25T05:11:18.214Z,10.32
2022-09-25T05:13:49.692Z,10.31
2022-09-25T05:16:17.392Z,10.31
2022-09-25T05:18:43.960Z,10.32
2022-09-25T05:21:10.653Z,10.33
2022-09-25T05:23:37.408Z,10.34
2022-09-25T05:26:04.232Z,10.36
2022-09-25T05:28:32.352Z,10.37
2022-09-25T05:31:03.007Z,10.39
2022-09-25T05:33:33.720Z,10.41
2022-09-25T05:36:07.872Z,10.43
2022-09-25T05:38:37.408Z,10.45
2022-09-25T05:41:11.540Z,10.47
2022-09-25T05:43:42.364Z,10.50
2022-09-25T05:46:10.809Z,10.53
2022-09-25T05:48:37.613Z,10.55
2022-09-25T05:51:04.533Z,10.58
2022-09-25T05:53:31.189Z,10.61
2022-09-25T05:56:00.685Z,10.65
2022-09-25T05:58:30.765Z,10.70
2022-09-25T06:01:02.795Z,10.77
2022-09-25T06:03:30.162Z,10.83
2022-09-25T06:06:00.457Z,10.90
2022-09-25T06:08:30.471Z,10.97
2022-09-25T06:11:02.920Z,11.04
2022-09-25T06:13:34.420Z,11.11
2022-09-25T06:16:02.349Z,11.16
2022-09-25T06:18:29.139Z,11.22
2022-09-25T06:21:04.723Z,11.29
2022-09-25T06:23:32.136Z,11.36
2022-09-25T06:26:03.285Z,11.44
2022-09-25T06:28:30.677Z,11.54
2022-09-25T06:31:00.850Z,11.61
2022-09-25T06:33:30.154Z,11.68
2022-09-25T06:36:06.477Z,11.75
2022-09-25T06:38:33.802Z,11.82
2022-09-25T06:41:03.338Z,11.90
2022-09-25T06:43:32.403Z,11.98
2022-09-25T06:46:01.897Z,12.07
2022-09-25T06:48:29.786Z,12.17
2022-09-25T06:51:00.196Z,12.26
2022-09-25T06:53:29.251Z,12.35
2022-09-25T06:55:58.435Z,12.45
2022-09-25T06:58:26.431Z,12.55
2022-09-25T07:00:55.228Z,12.66
2022-09-25T07:03:41.404Z,12.77
2022-09-25T07:06:19.601Z,12.89
2022-09-25T07:08:47.614Z,13.01
2022-09-25T07:11:17.590Z,13.12
2022-09-25T07:13:44.432Z,13.23
2022-09-25T07:16:16.910Z,13.33
2022-09-25T07:18:45.493Z,13.44
2022-09-25T07:21:17.743Z,13.55
2022-09-25T07:23:49.593Z,13.66
2022-09-25T07:26:22.007Z,13.74
2022-09-25T07:28:54.614Z,13.82
2022-09-25T07:31:26.429Z,13.90
2022-09-25T07:33:53.145Z,13.97
2022-09-25T07:36:21.099Z,14.06
2022-09-25T07:38:52.014Z,14.11
2022-09-25T07:41:21.879Z,14.18
2022-09-25T07:46:46.498Z,14.32
2022-09-25T07:49:13.491Z,14.38
2022-09-25T07:51:42.804Z,14.47
2022-09-25T07:54:09.298Z,14.56
2022-09-25T07:56:37.707Z,14.66
2022-09-25T07:59:04.727Z,14.78
2022-09-25T08:01:31.601Z,14.90
2022-09-25T08:03:58.918Z,15.03
2022-09-25T08:06:25.467Z,15.16
2022-09-25T08:08:52.215Z,15.29
2022-09-25T08:11:19.056Z,15.41
2022-09-25T08:13:46.473Z,15.53
2022-09-25T08:16:18.688Z,15.66
2022-09-25T08:18:46.879Z,15.78
2022-09-25T08:21:21.367Z,15.93
2022-09-25T08:23:50.889Z,16.11
2022-09-25T08:26:20.541Z,16.27
2022-09-25T08:28:47.289Z,16.43
2022-09-25T08:31:14.895Z,16.61
2022-09-25T08:33:46.396Z,16.83
2022-09-25T08:36:13.676Z,17.06
2022-09-25T08:38:40.134Z,17.25
2022-09-25T08:41:25.706Z,17.41
2022-09-25T08:44:08.698Z,17.57
2022-09-25T08:47:01.551Z,17.76
2022-09-25T08:49:35.957Z,17.95
2022-09-25T08:52:11.771Z,18.06
2022-09-25T08:54:42.069Z,18.17
2022-09-25T08:57:15.826Z,18.30
2022-09-25T08:59:49.111Z,18.45
2022-09-25T09:02:54.068Z,18.59
2022-09-25T09:05:38.221Z,18.68
2022-09-25T09:08:24.788Z,18.73
2022-09-25T09:10:57.946Z,18.74
2022-09-25T09:13:59.685Z,18.76
2022-09-25T09:16:26.518Z,18.84
2022-09-25T09:18:54.998Z,18.87
2022-09-25T09:21:35.305Z,18.86
2022-09-25T09:24:12.252Z,18.81
2022-09-25T09:27:00.337Z,18.76
2022-09-25T09:30:10.283Z,18.67
2022-09-25T09:32:45.977Z,18.66
2022-09-25T09:36:04.841Z,18.67
2022-09-25T09:38:58.981Z,18.69
2022-09-25T09:41:54.192Z,18.70
2022-09-25T09:45:11.499Z,18.68
2022-09-25T09:48:35.360Z,18.66
2022-09-25T09:51:32.585Z,18.63
2022-09-25T09:54:16.922Z,18.72
2022-09-25T09:56:49.176Z,18.89
2022-09-25T09:59:22.661Z,18.97
2022-09-25T10:02:03.221Z,19.03
2022-09-25T10:04:35.908Z,19.09
2022-09-25T10:07:12.444Z,19.11
2022-09-25T10:09:39.489Z,19.17
2022-09-25T10:12:21.656Z,19.24
2022-09-25T10:14:48.673Z,19.29
2022-09-25T10:17:16.717Z,19.41
2022-09-25T10:20:14.576Z,19.57
2022-09-25T10:22:44.499Z,19.85
2022-09-25T10:25:13.321Z,20.22
2022-09-25T10:27:45.630Z,20.60
2022-09-25T10:30:21.206Z,20.98
2022-09-25T10:33:16.152Z,21.36
2022-09-25T10:35:46.070Z,21.75
2022-09-25T10:38:43.870Z,22.05
2022-09-25T10:41:21.837Z,22.39
2022-09-25T10:43:55.089Z,22.74
2022-09-25T10:46:55.176Z,23.08
2022-09-25T10:49:43.860Z,23.40
2022-09-25T10:52:13.953Z,23.66
2022-09-25T10:54:45.556Z,23.88
2022-09-25T10:57:37.705Z,24.08
2022-09-25T11:00:21.543Z,24.32
2022-09-25T11:02:55.049Z,24.49
2022-09-25T11:05:42.113Z,24.57
2022-09-25T11:08:41.169Z,24.53
2022-09-25T11:11:10.160Z,24.57
2022-09-25T11:13:55.131Z,24.61
2022-09-25T11:16:54.132Z,24.64
2022-09-25T11:19:30.292Z,24.74
2022-09-25T11:22:28.481Z,24.82
2022-09-25T11:25:05.894Z,24.92
2022-09-25T11:27:56.094Z,25.01
2022-09-25T11:30:49.438Z,25.11
2022-09-25T11:33:33.935Z,25.24
2022-09-25T11:36:18.223Z,25.39
2022-09-25T11:39:24.614Z,25.50
2022-09-25T11:42:12.360Z,25.59
2022-09-25T11:45:10.359Z,25.68
2022-09-25T11:47:55.089Z,25.74
2022-09-25T11:50:49.272Z,25.82
2022-09-25T11:54:12.447Z,25.89
2022-09-25T11:57:34.245Z,25.96
2022-09-25T12:00:15.965Z,26.02
2022-09-25T12:03:16.545Z,26.05
2022-09-25T12:06:28.272Z,26.06
2022-09-25T12:09:10.473Z,26.05
2022-09-25T12:12:09.467Z,26.03
2022-09-25T12:15:41.943Z,26.03
2022-09-25T12:18:52.214Z,25.98
2022-09-25T12:22:19.159Z,25.92
2022-09-25T12:25:10.011Z,25.87
2022-09-25T12:28:24.233Z,25.80
2022-09-25T12:31:39.060Z,25.74
2022-09-25T12:34:38.209Z,25.71
2022-09-25T12:37:27.385Z,25.65
2022-09-25T12:40:05.529Z,25.57
2022-09-25T12:42:59.725Z,25.49
2022-09-25T12:45:40.115Z,25.42
2022-09-25T12:48:18.346Z,25.36
2022-09-25T12:51:46.282Z,25.31
2022-09-25T12:54:53.759Z,25.23
2022-09-25T12:57:45.568Z,25.13
2022-09-25T13:00:23.540Z,25.01
2022-09-25T13:03:26.232Z,24.90
2022-09-25T13:07:11.732Z,24.74
2022-09-25T13:11:03.994Z,24.57
2022-09-25T13:13:45.556Z,24.35
2022-09-25T13:16:17.369Z,24.22
2022-09-25T13:19:22.286Z,24.11
2022-09-25T13:21:51.688Z,23.97
2022-09-25T13:27:49.935Z,23.53
2022-09-25T13:30:39.510Z,23.28
2022-09-25T13:33:46.568Z,23.05
2022-09-25T13:36:52.507Z,22.85
2022-09-25T13:40:10.382Z,22.66
2022-09-25T13:42:47.841Z,22.51
2022-09-25T13:45:36.888Z,22.40
2022-09-25T13:48:15.513Z,22.29
2022-09-25T13:50:50.233Z,22.17
2022-09-25T13:54:11.117Z,22.08
2022-09-25T13:56:41.928Z,21.97
2022-09-25T13:59:13.553Z,21.90
2022-09-25T14:01:48.297Z,21.83
2022-09-25T14:04:21.688Z,21.76
2022-09-25T14:06:57.622Z,21.68
2022-09-25T14:09:43.274Z,21.60
2022-09-25T14:12:31.507Z,21.52
2022-09-25T14:15:04.116Z,21.43
2022-09-25T14:17:37.479Z,21.37
2022-09-25T14:20:28.010Z,21.29
2022-09-25T14:23:02.945Z,21.20
2022-09-25T14:25:42.541Z,21.12
2022-09-25T14:28:30.115Z,21.02
2022-09-25T14:31:37.364Z,20.92
2022-09-25T14:34:43.710Z,20.81
2022-09-25T14:37:38.950Z,20.69
2022-09-25T14:40:39.068Z,20.58
2022-09-25T14:43:45.774Z,20.47
2022-09-25T14:46:18.173Z,20.36
2022-09-25T14:49:06.033Z,20.27
2022-09-25T14:51:44.068Z,20.17
2022-09-25T14:54:18.445Z,20.10
2022-09-25T14:56:54.487Z,20.04
2022-09-25T14:59:43.350Z,20.01
2022-09-25T15:02:22.640Z,19.97
2022-09-25T15:04:59.329Z,19.93
2022-09-25T15:07:27.553Z,19.90
2022-09-25T15:09:58.813Z,19.88
2022-09-25T15:12:36.265Z,19.86
2022-09-25T15:15:22.458Z,19.84
2022-09-25T15:17:59.823Z,19.81
2022-09-25T15:20:48.327Z,19.77
2022-09-25T15:23:24.573Z,19.74
2022-09-25T15:25:59.383Z,19.70
2022-09-25T15:28:31.751Z,19.67
2022-09-25T15:31:06.333Z,19.63
2022-09-25T15:33:39.268Z,19.57
2022-09-25T15:36:24.921Z,19.52
2022-09-25T15:38:59.776Z,19.47
2022-09-25T15:41:29.418Z,19.41
2022-09-25T15:44:22.998Z,19.36
2022-09-25T15:46:51.773Z,19.30
2022-09-25T15:49:49.029Z,19.24
2022-09-25T15:52:32.558Z,19.18
2022-09-25T15:55:05.301Z,19.12
2022-09-25T15:57:36.501Z,19.04
2022-09-25T16:00:50.655Z,19.00
2022-09-25T16:04:07.958Z,18.92
2022-09-25T16:06:59.511Z,18.85
2022-09-25T16:09:39.067Z,18.79
2022-09-25T16:12:21.336Z,18.74
2022-09-25T16:14:58.139Z,18.68
2022-09-25T16:18:09.780Z,18.63
2022-09-25T16:29:56.883Z,18.27
2022-09-25T16:48:41.393Z,17.32
2022-09-25T17:04:03.802Z,16.83
2022-09-25T17:07:53.616Z,16.73
2022-09-25T17:10:35.539Z,16.59
2022-09-25T17:13:19.184Z,16.50
2022-09-25T17:13:43.380Z,16.98
2022-09-25T17:15:57.009Z,16.41
2022-09-25T17:21:35.405Z,16.34
2022-09-25T17:24:34.990Z,16.31
2022-09-25T17:27:43.017Z,16.27
2022-09-25T17:30:20.214Z,16.22
2022-09-25T17:32:51.845Z,16.18
2022-09-25T17:35:50.554Z,16.13
2022-09-25T17:38:23.423Z,16.05
2022-09-25T17:41:05.694Z,15.98
2022-09-25T17:43:37.652Z,15.91
2022-09-25T17:46:12.413Z,15.84
2022-09-25T17:48:41.005Z,15.78
2022-09-25T17:51:19.187Z,15.71
2022-09-25T17:53:50.963Z,15.65
2022-09-25T17:56:20.446Z,15.59
2022-09-25T17:58:48.784Z,15.54
2022-09-25T18:01:53.076Z,15.47
2022-09-25T18:04:23.606Z,15.43
2022-09-25T18:06:51.605Z,15.41
2022-09-25T18:09:18.301Z,15.38
2022-09-25T18:11:45.467Z,15.36
2022-09-25T18:14:14.664Z,15.32
2022-09-25T18:16:43.776Z,15.29
2022-09-25T18:19:38.195Z,15.26
2022-09-25T18:22:18.038Z,15.22
2022-09-25T18:24:47.470Z,15.19
2022-09-25T18:27:17.344Z,15.16
2022-09-25T18:29:51.837Z,15.13
2022-09-25T18:32:19.497Z,15.10
2022-09-25T18:34:47.356Z,15.08
2022-09-25T18:37:14.168Z,15.06
2022-09-25T18:39:45.667Z,15.03
2022-09-25T18:42:12.330Z,15.02
2022-09-25T18:44:42.695Z,14.99
2022-09-25T18:47:15.376Z,14.96
2022-09-25T18:49:43.344Z,14.93
2022-09-25T18:52:11.489Z,14.90
2022-09-25T18:54:42.428Z,14.87
2022-09-25T18:57:12.657Z,14.84
2022-09-25T18:59:42.060Z,14.83
2022-09-25T19:02:38.754Z,14.80
2022-09-25T19:05:10.742Z,14.78
2022-09-25T19:07:44.454Z,14.75
2022-09-25T19:10:19.843Z,14.74
2022-09-25T19:12:50.643Z,14.73
2022-09-25T19:15:25.352Z,14.70
2022-09-25T19:17:59.322Z,14.67
2022-09-25T19:20:27.874Z,14.63
2022-09-25T19:22:55.276Z,14.59
2022-09-25T19:25:22.859Z,14.54
2022-09-25T19:27:50.511Z,14.49
2022-09-25T19:30:17.887Z,14.47
2022-09-25T19:32:46.040Z,14.45
2022-09-25T19:35:13.197Z,14.43
2022-09-25T19:37:41.782Z,14.41
2022-09-25T19:40:28.611Z,14.39
2022-09-25T19:42:55.490Z,14.36
2022-09-25T19:45:22.556Z,14.34
2022-09-25T19:47:54.070Z,14.33
2022-09-25T19:54:48.164Z,14.29
2022-09-25T19:57:22.239Z,14.28
2022-09-25T19:59:51.304Z,14.28
2022-09-25T20:02:21.641Z,14.28
2022-09-25T20:04:49.324Z,14.27
2022-09-25T20:07:19.336Z,14.27
2022-09-25T20:09:56.197Z,14.26
2022-09-25T20:12:44.150Z,14.27
2022-09-25T20:15:18.998Z,14.27
2022-09-25T20:18:01.760Z,14.27
2022-09-25T20:21:28.898Z,14.28
2022-09-25T20:24:06.814Z,14.29
2022-09-25T20:26:53.298Z,14.29
2022-09-25T20:29:21.626Z,14.30
2022-09-25T20:32:02.215Z,14.31
2022-09-25T20:34:32.983Z,14.31
2022-09-25T20:37:00.972Z,14.31
2022-09-25T20:39:28.038Z,14.32
2022-09-25T20:41:56.328Z,14.32
2022-09-25T20:44:31.739Z,14.32
2022-09-25T20:47:01.302Z,14.32
2022-09-25T20:49:33.789Z,14.32
2022-09-25T20:52:05.350Z,14.31
2022-09-25T20:54:34.322Z,14.30
2022-09-25T20:57:01.695Z,14.30
2022-09-25T20:59:28.345Z,14.29
2022-09-25T21:01:58.704Z,14.29
2022-09-25T21:04:29.130Z,14.29
2022-09-25T21:09:55.904Z,14.28
2022-09-25T21:12:23.365Z,14.27
2022-09-25T21:14:50.116Z,14.27
2022-09-25T21:17:24.725Z,14.27
2022-09-25T21:19:56.254Z,14.26
2022-09-25T21:22:32.181Z,14.26
2022-09-25T21:25:12.822Z,14.26
2022-09-25T21:27:39.926Z,14.26
2022-09-25T21:30:18.405Z,14.26
2022-09-25T21:32:47.382Z,14.26
2022-09-25T21:35:14.959Z,14.26
2022-09-25T21:37:42.271Z,14.27
2022-09-25T21:40:11.504Z,14.27
2022-09-25T21:42:43.319Z,14.27
2022-09-25T21:45:13.322Z,14.28
2022-09-25T21:47:40.564Z,14.29
2022-09-25T21:50:07.983Z,14.29
2022-09-25T21:52:34.588Z,14.29
2022-09-25T21:55:01.243Z,14.29
2022-09-25T21:57:32.898Z,14.29
2022-09-25T21:59:59.297Z,14.28
2022-09-25T22:02:29.892Z,14.28
2022-09-25T22:04:56.491Z,14.28
2022-09-25T22:07:26.004Z,14.28
2022-09-25T22:09:52.553Z,14.29
2022-09-25T22:12:19.027Z,14.29
2022-09-25T22:14:45.681Z,14.29
2022-09-25T22:17:12.183Z,14.29
2022-09-25T22:19:39.028Z,14.29
2022-09-25T22:22:07.284Z,14.29
2022-09-25T22:24:33.821Z,14.29
2022-09-25T22:27:00.363Z,14.29
2022-09-25T22:29:26.946Z,14.28
2022-09-25T22:31:53.527Z,14.27
2022-09-25T22:34:24.498Z,14.28
2022-09-25T22:37:23.369Z,14.27
2022-09-25T22:39:54.124Z,14.28
2022-09-25T22:42:23.116Z,14.27
2022-09-25T22:44:49.665Z,14.27
2022-09-25T22:47:16.209Z,14.26
2022-09-25T22:49:42.742Z,14.24
2022-09-25T22:52:09.202Z,14.23
2022-09-25T22:54:35.724Z,14.21
2022-09-25T22:57:02.324Z,14.20
2022-09-25T22:59:28.901Z,14.19
2022-09-25T23:01:55.567Z,14.18
2022-09-25T23:04:24.248Z,14.17
2022-09-25T23:06:51.524Z,14.17
2022-09-25T23:09:26.499Z,14.16
2022-09-25T23:11:55.036Z,14.16
2022-09-25T23:14:25.936Z,14.15
2022-09-25T23:16:53.856Z,14.14
2022-09-25T23:19:24.326Z,14.12
2022-09-25T23:21:51.768Z,14.10
2022-09-25T23:24:21.377Z,14.06
2022-09-25T23:26:48.654Z,14.03
2022-09-25T23:29:17.901Z,13.99
2022-09-25T23:31:46.413Z,13.95
2022-09-25T23:34:13.726Z,13.91
2022-09-25T23:36:40.718Z,13.87
2022-09-25T23:39:08.175Z,13.83
2022-09-25T23:41:37.652Z,13.79
2022-09-25T23:44:07.888Z,13.75
2022-09-25T23:46:38.507Z,13.71
2022-09-25T23:49:05.361Z,13.66
2022-09-25T23:51:32.823Z,13.62
2022-09-25T23:54:00.625Z,13.58
2022-09-25T23:56:32.325Z,13.55
2022-09-25T23:59:02.833Z,13.50
